WMSA/SZB METAR and TAF weather

Enter ICAO airport designator
Station Type Date Time Source
WMSA METAR 2019/08/19 23:00 UTC NOAA

WMSA 192300Z 00000KT 8000 FEW005 SCT140 BKN270 26/25 Q1010


Station Type Date Time Source
WMSA Decoded METAR 2019/08/19 23:00 UTC NOAA

Subang/Sultan Abdul Aziz Shah Airport, Malaysia (WMSA) 03-07N 101-32E
Aug 19, 2019 - 07:00 PM EDT / 2019.08.19 2300 UTC
Wind: Calm:0
Visibility: 4 mile(s):0
Sky conditions: mostly cloudy
Temperature: 78 F (26 C)
Dew Point: 77 F (25 C)
Relative Humidity: 94%
Pressure (altimeter): 29.83 in. Hg (1010 hPa)
ob: WMSA 192300Z 00000KT 8000 FEW005 SCT140 BKN270 26/25 Q1010
cycle: 23

Station Type Date Time Source
WMSA TAF 2019/08/19 18:09 UTC NOAA

TAF WMSA 191700Z 1918/2018 VRB03KT 9000 FEW026
BECMG 1922/2000 4000 HZ FEW017CB
BECMG 2000/2001 VRB03KT 9000 FEW018 PROB30
TEMPO 2007/2011 15009KT 4000 TSRA FEW017CB SCT018

Example: see airport list